Česky Dansk Deutsch English Español Suomi Français Magyar Italiano Nederlands norsk Polski Português svenska Türkçe

 

Het Weer

Koeln / Bonn (Duitsland)

14:20, 16 augustus 2016 (GMT)

NWNNE
WE
SWSSE
Home            
Koeln / Bonn Noervenich Duesseldorf Mendig Essen Monchengladbach Hessen Aachen / Merzbruck Buechel Dortmund / Wickede Geilenkirchen Brueggen Elsenborn Maastricht Airport Zuid Limburg Spa / La Sauveniere Hahn Spangdahlem Laarbruch Niederrhein Kalkar Genk Pferdsfeld Wiesbaden

Om een weerknop op uw website of weblog te plaatsen, copieer onderstaande code en plak die in uw pagina. In het eerste vakje staat HTML-code, in het tweede vakje UBB-code.


Add to Google

Details

Wind speed:2 bf, 6 kn, 3.1 m/s, 6.9 miles/h, 11.1 km/h
Wind direction:W, 270° - N, 010°
Visibility:Greater than 10000 m, 10 km, 32800 ft, 6.2 miles
Clouds:CAVOC
Temperature:25°C, 77°F
Gefühlte Temperatur:26°C, 78°F
Dew-point:10°C, 50°F
Atmospheric pressure:1016 hPa, 762.1 mmHg, 30.00 inHg, 1.003 atm
Relative humidity:38.8 %
METAR:EDDK 161420Z 33006KT 270V010 CAVOK 25/10 Q1016 NOSIG

Snelkoppelingen

Actuele weersinformatie van de hele wereld. Voeg locaties toe met het plus (+) symbool. Deze snelkoppelingen kunnen worden toegevoegd aan Google.

Lid van de Technetium groep

website free tracking
StatCounter NetStat W3C Validator

15-12-2018 08:33:21
astro.technetium.be money.technetium.be phote.technetium.be tafeltennistafel.technetium.be www.ligfiets.net